createdAt,value
2019-04-28T00:01:23.605Z,3.58
2019-04-28T00:03:51.903Z,3.60
2019-04-28T00:06:21.145Z,3.20
2019-04-28T00:08:49.544Z,3.30
2019-04-28T00:11:17.821Z,3.77
2019-04-28T00:13:46.217Z,4.00
2019-04-28T00:16:17.327Z,4.00
2019-04-28T00:18:45.638Z,3.85
2019-04-28T00:21:18.217Z,3.40
2019-04-28T00:23:53.805Z,3.72
2019-04-28T00:26:23.723Z,3.65
2019-04-28T00:28:56.340Z,3.70
2019-04-28T00:31:24.552Z,3.33
2019-04-28T00:33:52.903Z,3.12
2019-04-28T00:36:21.642Z,3.67
2019-04-28T00:38:51.468Z,3.42
2019-04-28T00:41:21.331Z,3.50
2019-04-28T00:43:51.836Z,3.27
2019-04-28T00:46:21.559Z,3.50
2019-04-28T00:48:50.884Z,3.58
2019-04-28T00:51:19.211Z,3.42
2019-04-28T00:53:47.489Z,4.40
2019-04-28T00:56:15.813Z,4.30
2019-04-28T00:58:44.095Z,4.15
2019-04-28T01:01:17.037Z,3.72
2019-04-28T01:03:45.344Z,3.40
2019-04-28T01:06:14.078Z,4.00
2019-04-28T01:08:42.495Z,3.45
2019-04-28T01:11:11.760Z,4.00
2019-04-28T01:13:41.985Z,3.60
2019-04-28T01:16:28.150Z,3.75
2019-04-28T01:19:04.115Z,3.72
2019-04-28T01:21:50.548Z,3.92
2019-04-28T01:24:20.108Z,3.17
2019-04-28T01:26:50.827Z,3.25
2019-04-28T01:29:21.684Z,3.75
2019-04-28T01:31:51.623Z,3.55
2019-04-28T01:34:23.523Z,3.40
2019-04-28T01:36:52.182Z,2.90
2019-04-28T01:39:20.445Z,3.50
2019-04-28T01:41:49.593Z,3.25
2019-04-28T01:44:19.868Z,4.60
2019-04-28T01:46:49.651Z,2.67
2019-04-28T01:49:19.636Z,3.10
2019-04-28T01:52:00.778Z,3.60
2019-04-28T01:54:30.245Z,3.30
2019-04-28T01:57:01.133Z,4.15
2019-04-28T01:59:30.263Z,3.67
2019-04-28T02:02:00.084Z,3.00
2019-04-28T02:04:30.044Z,3.00
2019-04-28T02:06:59.816Z,3.52
2019-04-28T02:09:29.644Z,3.60
2019-04-28T02:11:58.200Z,3.22
2019-04-28T02:14:26.613Z,3.27
2019-04-28T02:16:54.903Z,3.00
2019-04-28T02:19:23.465Z,4.10
2019-04-28T02:21:53.406Z,3.20
2019-04-28T02:24:32.254Z,3.20
2019-04-28T02:27:01.129Z,3.80
2019-04-28T02:29:30.210Z,4.37
2019-04-28T02:32:02.222Z,3.20
2019-04-28T02:34:31.111Z,3.42
2019-04-28T02:37:01.401Z,3.40
2019-04-28T02:39:31.205Z,3.45
2019-04-28T02:42:01.463Z,4.20
2019-04-28T02:44:33.418Z,3.27
2019-04-28T02:47:00.762Z,2.83
2019-04-28T02:49:31.041Z,3.40
2019-04-28T02:52:04.111Z,3.35
2019-04-28T02:54:32.707Z,3.85
2019-04-28T02:57:01.405Z,3.35
2019-04-28T02:59:30.511Z,3.60
2019-04-28T03:02:00.662Z,3.50
2019-04-28T03:04:30.826Z,3.50
2019-04-28T03:07:01.387Z,3.30
2019-04-28T03:09:30.575Z,3.20
2019-04-28T03:12:01.474Z,3.50
2019-04-28T03:14:30.506Z,3.47
2019-04-28T03:17:00.853Z,3.60
2019-04-28T03:19:33.766Z,3.75
2019-04-28T03:22:01.327Z,3.12
2019-04-28T03:24:31.586Z,2.90
2019-04-28T03:27:07.160Z,2.90
2019-04-28T03:29:37.441Z,3.33
2019-04-28T03:32:32.825Z,3.20
2019-04-28T03:34:52.958Z,3.20
2019-04-28T03:37:18.084Z,3.50
2019-04-28T03:39:46.458Z,3.42
2019-04-28T03:42:14.756Z,3.35
2019-04-28T03:44:43.051Z,4.30
2019-04-28T03:47:11.361Z,3.05
2019-04-28T03:49:42.754Z,3.62
2019-04-28T03:52:10.706Z,3.92
2019-04-28T03:54:40.949Z,3.70
2019-04-28T03:57:11.470Z,3.87
2019-04-28T03:59:43.181Z,4.12
2019-04-28T04:02:11.209Z,3.62
2019-04-28T04:04:41.363Z,3.25
2019-04-28T04:07:11.115Z,3.08
2019-04-28T04:09:51.513Z,3.17
2019-04-28T04:12:37.831Z,3.70
2019-04-28T04:15:24.970Z,3.50
2019-04-28T04:18:11.019Z,3.13
2019-04-28T04:20:40.957Z,3.50
2019-04-28T04:23:11.322Z,3.33
2019-04-28T04:25:41.605Z,3.40
2019-04-28T04:28:10.567Z,3.60
2019-04-28T04:30:40.855Z,3.10
2019-04-28T04:33:11.164Z,3.20
2019-04-28T04:35:43.122Z,3.70
2019-04-28T04:38:10.433Z,3.20
2019-04-28T04:40:41.152Z,3.60
2019-04-28T04:43:11.233Z,3.30
2019-04-28T04:45:40.503Z,3.70
2019-04-28T04:48:11.346Z,3.00
2019-04-28T04:50:41.111Z,3.17
2019-04-28T04:53:11.030Z,3.20
2019-04-28T04:55:40.827Z,3.03
2019-04-28T04:58:10.783Z,3.10
2019-04-28T05:00:44.299Z,3.10
2019-04-28T05:03:21.228Z,3.30
2019-04-28T05:05:50.248Z,2.95
2019-04-28T05:08:20.235Z,3.30
2019-04-28T05:10:49.947Z,3.37
2019-04-28T05:13:20.076Z,2.92
2019-04-28T05:15:48.806Z,3.27
2019-04-28T05:18:17.078Z,3.00
2019-04-28T05:20:45.390Z,3.80
2019-04-28T05:23:15.314Z,3.25
2019-04-28T05:25:44.477Z,3.10
2019-04-28T05:28:12.747Z,3.27
2019-04-28T05:30:43.054Z,3.53
2019-04-28T05:33:12.976Z,3.10
2019-04-28T05:35:41.285Z,3.02
2019-04-28T05:38:10.016Z,3.00
2019-04-28T05:40:39.910Z,3.45
2019-04-28T05:43:08.362Z,3.77
2019-04-28T05:45:36.688Z,3.10
2019-04-28T05:48:04.960Z,3.20
2019-04-28T05:50:34.937Z,2.95
2019-04-28T05:53:10.835Z,3.20
2019-04-28T05:55:44.055Z,3.80
2019-04-28T05:58:19.937Z,3.20
2019-04-28T06:01:06.307Z,3.95
2019-04-28T06:03:35.292Z,3.60
2019-04-28T06:06:03.576Z,4.00
2019-04-28T06:08:36.233Z,4.35
2019-04-28T06:11:22.743Z,3.70
2019-04-28T06:13:52.556Z,3.62
2019-04-28T06:16:22.198Z,4.40
2019-04-28T06:18:50.867Z,3.10
2019-04-28T06:21:19.141Z,3.55
2019-04-28T06:23:47.436Z,3.53
2019-04-28T06:26:16.002Z,3.40
2019-04-28T06:28:44.315Z,3.45
2019-04-28T06:31:12.626Z,3.55
2019-04-28T06:33:40.947Z,3.40
2019-04-28T06:36:09.509Z,4.15
2019-04-28T06:38:37.786Z,3.35
2019-04-28T06:41:06.098Z,4.50
2019-04-28T06:43:34.387Z,4.10
2019-04-28T06:46:02.694Z,3.90
2019-04-28T06:48:30.982Z,3.50
2019-04-28T06:50:59.576Z,4.30
2019-04-28T06:53:28.156Z,3.58
2019-04-28T06:55:56.462Z,4.10
2019-04-28T06:58:24.747Z,3.83
2019-04-28T07:00:53.057Z,3.98
2019-04-28T07:03:23.144Z,3.83
2019-04-28T07:05:51.394Z,3.73
2019-04-28T07:08:19.689Z,6.42
2019-04-28T07:10:48.001Z,4.03
2019-04-28T07:13:16.290Z,3.55
2019-04-28T07:15:44.891Z,3.50
2019-04-28T07:18:13.179Z,4.00
2019-04-28T07:20:55.424Z,3.95
2019-04-28T07:23:23.733Z,3.55
2019-04-28T07:25:52.025Z,4.15
2019-04-28T07:28:20.602Z,4.08
2019-04-28T07:30:48.889Z,4.47
2019-04-28T07:33:17.193Z,4.43
2019-04-28T07:35:45.487Z,4.50
2019-04-28T07:38:13.871Z,3.70
2019-04-28T07:40:42.142Z,4.60
2019-04-28T07:43:10.782Z,4.47
2019-04-28T07:45:39.352Z,4.53
2019-04-28T07:48:07.674Z,3.90
2019-04-28T07:50:36.210Z,3.53
2019-04-28T07:53:09.189Z,3.10
2019-04-28T07:55:37.492Z,3.27
2019-04-28T07:58:05.784Z,3.67
2019-04-28T08:00:34.088Z,3.60
2019-04-28T08:03:02.362Z,3.90
2019-04-28T08:05:30.674Z,4.60
2019-04-28T08:07:58.973Z,5.07
2019-04-28T08:10:27.289Z,5.20
2019-04-28T08:12:55.559Z,5.70
2019-04-28T08:15:23.869Z,6.63
2019-04-28T08:17:52.153Z,6.10
2019-04-28T08:20:20.753Z,6.30
2019-04-28T08:22:49.033Z,7.05
2019-04-28T08:25:17.557Z,6.70
2019-04-28T08:27:45.844Z,5.80
2019-04-28T08:30:14.400Z,5.53
2019-04-28T08:32:56.358Z,5.25
2019-04-28T08:35:24.659Z,4.55
2019-04-28T08:37:52.956Z,3.92
2019-04-28T08:40:21.263Z,4.03
2019-04-28T08:42:49.608Z,3.50
2019-04-28T08:45:18.245Z,3.47
2019-04-28T08:47:46.540Z,3.40
2019-04-28T08:50:16.369Z,2.92
2019-04-28T08:52:44.701Z,3.70
2019-04-28T08:55:13.008Z,3.20
2019-04-28T08:57:41.686Z,3.00
2019-04-28T09:00:11.192Z,3.90
2019-04-28T09:02:39.476Z,3.00
2019-04-28T09:05:08.144Z,3.05
2019-04-28T09:07:36.723Z,3.55
2019-04-28T09:10:07.075Z,2.87
2019-04-28T09:12:35.362Z,3.30
2019-04-28T09:15:05.701Z,3.05
2019-04-28T09:17:33.979Z,3.02
2019-04-28T09:20:02.610Z,3.30
2019-04-28T09:22:30.920Z,3.80
2019-04-28T09:24:59.215Z,3.80
2019-04-28T09:27:27.488Z,3.70
2019-04-28T09:29:55.801Z,3.90
2019-04-28T09:32:24.611Z,9.00
2019-04-28T09:34:52.911Z,4.00
2019-04-28T09:37:21.187Z,8.10
2019-04-28T09:39:57.109Z,4.90
2019-04-28T09:42:32.592Z,4.50
2019-04-28T09:45:06.057Z,4.80
2019-04-28T09:47:34.341Z,5.20
2019-04-28T09:50:02.615Z,4.90
2019-04-28T09:52:30.920Z,5.05
2019-04-28T09:54:59.207Z,4.00
2019-04-28T09:57:27.551Z,4.28
2019-04-28T09:59:56.118Z,4.40
2019-04-28T10:02:24.442Z,4.17
2019-04-28T10:04:52.984Z,4.08
2019-04-28T10:07:21.281Z,3.50
2019-04-28T10:09:49.831Z,3.73
2019-04-28T10:12:26.984Z,3.67
2019-04-28T10:14:48.254Z,4.20
2019-04-28T10:17:16.541Z,4.33
2019-04-28T10:19:44.862Z,5.70
2019-04-28T10:22:13.148Z,4.33
2019-04-28T10:24:41.455Z,4.35
2019-04-28T10:27:09.831Z,4.20
2019-04-28T10:29:38.947Z,4.00
2019-04-28T10:32:07.588Z,3.30
2019-04-28T10:34:36.144Z,3.50
2019-04-28T10:37:04.492Z,3.70
2019-04-28T10:39:34.776Z,3.20
2019-04-28T10:42:03.112Z,4.40
2019-04-28T10:44:33.166Z,8.13
2019-04-28T10:47:01.863Z,4.35
2019-04-28T10:49:30.611Z,4.70
2019-04-28T10:51:59.800Z,4.20
2019-04-28T10:54:28.088Z,3.95
2019-04-28T10:56:56.374Z,5.00
2019-04-28T10:59:24.925Z,4.58
2019-04-28T11:01:53.213Z,4.50
2019-04-28T11:04:39.632Z,4.80
2019-04-28T11:07:09.999Z,5.00
2019-04-28T11:09:56.264Z,5.10
2019-04-28T11:12:26.513Z,5.20
2019-04-28T11:14:54.834Z,5.07
2019-04-28T11:17:24.073Z,4.87
2019-04-28T11:19:52.364Z,4.80
2019-04-28T11:22:20.738Z,4.85
2019-04-28T11:24:49.045Z,4.60
2019-04-28T11:27:17.602Z,4.70
2019-04-28T11:29:45.888Z,4.95
2019-04-28T11:32:15.277Z,5.97
2019-04-28T11:34:50.976Z,5.40
2019-04-28T11:37:19.713Z,5.17
2019-04-28T11:39:47.992Z,5.05
2019-04-28T11:42:16.317Z,3.95
2019-04-28T11:44:44.595Z,3.20
2019-04-28T11:47:14.838Z,4.00
2019-04-28T11:49:43.128Z,4.10
2019-04-28T11:52:12.274Z,4.40
2019-04-28T11:54:40.566Z,4.45
2019-04-28T11:57:08.853Z,4.70
2019-04-28T11:59:37.468Z,4.75
2019-04-28T12:02:06.091Z,4.62
2019-04-28T12:04:34.394Z,5.00
2019-04-28T12:07:02.947Z,4.50
2019-04-28T12:09:32.876Z,4.53
2019-04-28T12:12:02.815Z,4.40
2019-04-28T12:14:36.015Z,4.42
2019-04-28T12:17:17.987Z,3.65
2019-04-28T12:19:50.342Z,3.50
2019-04-28T12:22:18.695Z,3.55
2019-04-28T12:24:46.991Z,3.40
2019-04-28T12:27:15.520Z,4.22
2019-04-28T12:29:43.836Z,3.90
2019-04-28T12:32:12.129Z,3.30
2019-04-28T12:34:40.774Z,2.45
2019-04-28T12:37:09.061Z,2.42
2019-04-28T12:39:37.339Z,2.30
2019-04-28T12:42:05.658Z,2.30
2019-04-28T12:44:33.938Z,2.30
2019-04-28T12:47:02.244Z,1.90
2019-04-28T12:49:32.492Z,1.70
2019-04-28T12:52:00.791Z,1.50
2019-04-28T12:54:30.727Z,1.60
2019-04-28T12:56:59.030Z,1.80
2019-04-28T12:59:45.135Z,1.60
2019-04-28T13:02:28.047Z,1.67
2019-04-28T13:05:09.812Z,1.40
2019-04-28T13:07:38.950Z,1.60
2019-04-28T13:10:07.528Z,2.17
2019-04-28T13:12:35.884Z,1.80
2019-04-28T13:15:05.252Z,1.80
2019-04-28T13:17:33.638Z,1.62
2019-04-28T13:20:01.909Z,2.10
2019-04-28T13:22:30.186Z,2.10
2019-04-28T13:24:59.153Z,1.60
2019-04-28T13:27:27.461Z,2.08
2019-04-28T13:29:55.807Z,1.70
2019-04-28T13:32:24.365Z,4.40
2019-04-28T13:34:52.701Z,2.40
2019-04-28T13:37:20.966Z,4.43
2019-04-28T13:39:50.915Z,2.40
2019-04-28T13:42:19.290Z,2.47
2019-04-28T13:44:49.244Z,2.02
2019-04-28T13:47:17.945Z,2.30
2019-04-28T13:49:53.604Z,2.40
2019-04-28T13:52:21.888Z,2.50
2019-04-28T13:54:52.159Z,2.40
2019-04-28T13:57:20.468Z,2.50
2019-04-28T13:59:50.370Z,3.10
2019-04-28T14:02:26.105Z,3.72
2019-04-28T14:04:58.525Z,2.50
2019-04-28T14:07:26.840Z,3.42
2019-04-28T14:09:55.179Z,2.30
2019-04-28T14:12:23.487Z,2.37
2019-04-28T14:14:52.711Z,2.40
2019-04-28T14:17:20.983Z,1.98
2019-04-28T14:19:49.271Z,2.00
2019-04-28T14:22:17.588Z,2.07
2019-04-28T14:24:46.103Z,1.63
2019-04-28T14:27:14.445Z,1.90
2019-04-28T14:29:43.068Z,1.85
2019-04-28T14:32:11.329Z,1.60
2019-04-28T14:34:39.636Z,1.77
2019-04-28T14:37:08.019Z,2.00
2019-04-28T14:39:36.348Z,1.60
2019-04-28T14:42:04.702Z,1.40
2019-04-28T14:44:33.005Z,2.30
2019-04-28T14:47:01.363Z,1.72
2019-04-28T14:49:31.424Z,1.52
2019-04-28T14:51:59.704Z,1.67
2019-04-28T14:54:28.383Z,1.20
2019-04-28T14:56:56.709Z,1.30
2019-04-28T14:59:25.228Z,1.70
2019-04-28T15:02:07.534Z,1.60
2019-04-28T15:04:49.627Z,1.20
2019-04-28T15:07:35.957Z,1.57
2019-04-28T15:10:09.010Z,1.60
2019-04-28T15:12:37.345Z,2.20
2019-04-28T15:15:06.635Z,1.90
2019-04-28T15:17:35.249Z,1.90
2019-04-28T15:20:04.286Z,1.40
2019-04-28T15:22:32.588Z,1.50
2019-04-28T15:25:00.867Z,1.30
2019-04-28T15:27:29.179Z,1.30
2019-04-28T15:29:57.488Z,1.80
2019-04-28T15:32:26.165Z,1.45
2019-04-28T15:34:54.461Z,1.70
2019-04-28T15:37:22.749Z,1.50
2019-04-28T15:39:51.303Z,1.87
2019-04-28T15:42:19.622Z,2.55
2019-04-28T15:44:47.902Z,2.20
2019-04-28T15:47:16.430Z,2.00
2019-04-28T15:49:44.741Z,2.10
2019-04-28T15:52:13.037Z,1.90
2019-04-28T15:54:41.403Z,2.75
2019-04-28T15:57:09.685Z,4.80
2019-04-28T15:59:37.984Z,3.98
2019-04-28T16:02:06.319Z,5.20
2019-04-28T16:04:34.655Z,4.05
2019-04-28T16:07:02.940Z,5.00
2019-04-28T16:09:31.264Z,2.70
2019-04-28T16:11:59.829Z,3.00
2019-04-28T16:14:28.128Z,3.50
2019-04-28T16:16:56.428Z,3.02
2019-04-28T16:19:24.751Z,2.60
2019-04-28T16:21:53.078Z,2.80
2019-04-28T16:24:22.452Z,3.20
2019-04-28T16:26:50.765Z,3.65
2019-04-28T16:29:19.053Z,3.22
2019-04-28T16:31:47.376Z,4.78
2019-04-28T16:34:15.667Z,3.25
2019-04-28T16:36:43.987Z,2.90
2019-04-28T16:39:12.295Z,4.47
2019-04-28T16:41:44.102Z,6.55
2019-04-28T16:44:13.238Z,4.40
2019-04-28T16:46:41.506Z,4.42
2019-04-28T16:49:10.133Z,4.15
2019-04-28T16:51:38.411Z,4.20
2019-04-28T16:54:06.965Z,3.80
2019-04-28T16:56:54.718Z,5.00
2019-04-28T16:59:40.737Z,4.00
2019-04-28T17:02:25.909Z,4.40
2019-04-28T17:04:54.292Z,3.40
2019-04-28T17:07:22.574Z,4.05
2019-04-28T17:09:50.867Z,3.70
2019-04-28T17:12:19.185Z,3.37
2019-04-28T17:14:47.482Z,3.60
2019-04-28T17:17:16.118Z,3.40
2019-04-28T17:19:44.715Z,3.30
2019-04-28T17:22:13.077Z,3.77
2019-04-28T17:24:41.433Z,3.20
2019-04-28T17:27:09.738Z,3.30
2019-04-28T17:29:39.271Z,6.67
2019-04-28T17:32:07.590Z,5.20
2019-04-28T17:34:35.884Z,7.65
2019-04-28T17:37:05.720Z,4.20
2019-04-28T17:39:35.188Z,3.60
2019-04-28T17:42:05.035Z,5.12
2019-04-28T17:44:33.299Z,4.10
2019-04-28T17:47:01.607Z,4.17
2019-04-28T17:49:31.789Z,7.15
2019-04-28T17:52:00.107Z,4.00
2019-04-28T17:54:28.385Z,4.10
2019-04-28T17:56:56.712Z,4.00
2019-04-28T17:59:25.242Z,3.43
2019-04-28T18:02:06.985Z,4.00
2019-04-28T18:04:39.861Z,4.70
2019-04-28T18:07:09.785Z,3.60
2019-04-28T18:09:38.390Z,3.98
2019-04-28T18:12:06.736Z,3.30
2019-04-28T18:14:35.694Z,3.72
2019-04-28T18:17:21.260Z,5.22
2019-04-28T18:19:49.806Z,5.40
2019-04-28T18:22:18.087Z,3.90
2019-04-28T18:24:46.393Z,3.95
2019-04-28T18:27:14.701Z,4.53
2019-04-28T18:29:42.990Z,4.58
2019-04-28T18:32:12.914Z,4.40
2019-04-28T18:34:59.250Z,4.97
2019-04-28T18:37:45.542Z,4.70
2019-04-28T18:40:21.961Z,4.70
2019-04-28T18:42:52.147Z,5.25
2019-04-28T18:45:20.442Z,5.30
2019-04-28T18:47:48.736Z,6.30
2019-04-28T18:50:17.347Z,5.03
2019-04-28T18:52:45.636Z,5.50
2019-04-28T18:55:14.108Z,6.15
2019-04-28T18:57:42.416Z,6.10
2019-04-28T19:00:11.385Z,5.70
2019-04-28T19:02:41.596Z,6.75
2019-04-28T19:05:10.576Z,6.37
2019-04-28T19:07:49.919Z,7.90
2019-04-28T19:10:25.537Z,7.50
2019-04-28T19:13:11.407Z,7.40
2019-04-28T19:15:44.321Z,8.75
2019-04-28T19:18:23.118Z,10.40
2019-04-28T19:20:51.407Z,8.75
2019-04-28T19:23:20.032Z,6.70
2019-04-28T19:25:48.317Z,6.55
2019-04-28T19:28:16.632Z,6.87
2019-04-28T19:30:45.712Z,6.30
2019-04-28T19:33:14.201Z,6.60
2019-04-28T19:35:42.500Z,7.10
2019-04-28T19:38:10.849Z,6.92
2019-04-28T19:40:39.160Z,7.10
2019-04-28T19:43:07.439Z,7.47
2019-04-28T19:45:37.696Z,7.40
2019-04-28T19:48:05.933Z,8.80
2019-04-28T19:50:34.236Z,8.38
2019-04-28T19:53:02.538Z,9.13
2019-04-28T19:55:32.517Z,19.07
2019-04-28T19:58:14.588Z,10.20
2019-04-28T20:00:44.606Z,8.30
2019-04-28T20:03:12.874Z,8.30
2019-04-28T20:05:41.169Z,8.68
2019-04-28T20:08:09.463Z,8.80
2019-04-28T20:10:37.777Z,8.78
2019-04-28T20:13:06.254Z,9.30
2019-04-28T20:15:35.122Z,10.27
2019-04-28T20:18:03.714Z,9.15
2019-04-28T20:20:32.010Z,9.60
2019-04-28T20:23:00.330Z,9.50
2019-04-28T20:25:28.617Z,9.40
2019-04-28T20:27:56.925Z,9.33
2019-04-28T20:30:25.313Z,8.95
2019-04-28T20:33:06.629Z,9.58
2019-04-28T20:35:31.046Z,9.90
2019-04-28T20:38:00.989Z,10.43
2019-04-28T20:40:33.373Z,10.15
2019-04-28T20:43:06.731Z,9.33
2019-04-28T20:45:35.323Z,9.90
2019-04-28T20:48:03.637Z,10.00
2019-04-28T20:50:31.951Z,10.15
2019-04-28T20:53:00.244Z,10.20
2019-04-28T20:55:28.626Z,9.45
2019-04-28T20:57:56.907Z,10.90
2019-04-28T21:00:25.379Z,10.10
2019-04-28T21:02:53.687Z,10.38
2019-04-28T21:05:22.006Z,10.20
2019-04-28T21:07:50.317Z,9.58
2019-04-28T21:10:18.647Z,9.78
2019-04-28T21:12:46.912Z,9.80
2019-04-28T21:15:15.998Z,9.33
2019-04-28T21:17:44.234Z,9.60
2019-04-28T21:20:12.795Z,10.18
2019-04-28T21:22:41.061Z,10.18
2019-04-28T21:25:09.688Z,10.05
2019-04-28T21:27:38.120Z,10.20
2019-04-28T21:30:06.858Z,10.70
2019-04-28T21:32:35.173Z,10.72
2019-04-28T21:35:03.532Z,10.93
2019-04-28T21:37:31.887Z,11.08
2019-04-28T21:40:00.307Z,10.53
2019-04-28T21:42:30.249Z,11.05
2019-04-28T21:45:16.567Z,10.80
2019-04-28T21:47:44.891Z,11.28
2019-04-28T21:50:13.250Z,10.95
2019-04-28T21:52:41.609Z,11.05
2019-04-28T21:55:09.967Z,10.82
2019-04-28T21:57:38.254Z,11.53
2019-04-28T22:00:10.093Z,12.17
2019-04-28T22:02:38.397Z,11.15
2019-04-28T22:05:07.445Z,10.70
2019-04-28T22:07:35.736Z,10.00
2019-04-28T22:10:05.886Z,11.33
2019-04-28T22:12:34.196Z,9.93
2019-04-28T22:15:02.496Z,9.80
2019-04-28T22:17:30.767Z,9.98
2019-04-28T22:19:59.400Z,9.00
2019-04-28T22:22:27.686Z,10.85
2019-04-28T22:25:00.382Z,9.85
2019-04-28T22:27:30.564Z,9.78
2019-04-28T22:29:59.156Z,10.60
2019-04-28T22:32:27.443Z,11.85
2019-04-28T22:34:55.845Z,11.80
2019-04-28T22:37:24.491Z,11.53
2019-04-28T22:39:52.788Z,11.35
2019-04-28T22:42:21.104Z,11.57
2019-04-28T22:44:49.399Z,11.57
2019-04-28T22:47:17.715Z,12.28
2019-04-28T22:49:46.101Z,12.03
2019-04-28T22:52:14.780Z,10.48
2019-04-28T22:54:50.948Z,11.60
2019-04-28T22:57:21.244Z,10.70
2019-04-28T22:59:51.199Z,11.63
2019-04-28T23:02:21.149Z,11.80
2019-04-28T23:05:03.349Z,11.50
2019-04-28T23:07:31.703Z,10.75
2019-04-28T23:09:59.996Z,10.78
2019-04-28T23:12:28.321Z,11.18
2019-04-28T23:14:56.620Z,9.88
2019-04-28T23:17:25.102Z,10.60
2019-04-28T23:19:53.391Z,10.55
2019-04-28T23:22:29.600Z,10.53
2019-04-28T23:24:58.381Z,9.85
2019-04-28T23:27:26.703Z,9.88
2019-04-28T23:29:55.314Z,9.98
2019-04-28T23:32:23.941Z,10.03
2019-04-28T23:34:52.518Z,10.88
2019-04-28T23:37:20.809Z,10.27
2019-04-28T23:39:49.142Z,10.55
2019-04-28T23:42:19.075Z,10.25
2019-04-28T23:44:47.376Z,11.60
2019-04-28T23:47:15.669Z,11.60
2019-04-28T23:49:44.329Z,10.48
2019-04-28T23:52:14.537Z,10.73
2019-04-28T23:54:44.666Z,10.50
2019-04-28T23:57:12.954Z,10.13
2019-04-28T23:59:41.272Z,10.40
